Time;durP1;ratioP1;P1;durP2;ratioP2;P2;SDS_P1;SDS_P2;PMS_P1;PMS_P2;Temp;Humidity;BMP_temperature;BMP_pressure;BME280_temperature;BME280_humidity;BME280_pressure;Samples;Min_cycle;Max_cycle;Signal;HPM_P1;HPM_P2
2023/09/19 04:00:32;;;;;;;19.30;7.90;;;;;;;18.64;71.03;98450.21;101854;1286;107811;-90
2023/09/19 04:03:06;;;;;;;16.80;7.50;;;;;;;18.56;71.05;98451.17;102920;1291;96652;-79
2023/09/19 04:05:35;;;;;;;14.90;7.60;;;;;;;18.51;70.92;98453.73;102528;1290;96570;-79
2023/09/19 04:08:04;;;;;;;16.50;8.20;;;;;;;18.46;71.19;98454.66;102895;1290;109594;-78
2023/09/19 04:10:32;;;;;;;16.10;8.30;;;;;;;18.42;71.27;98455.63;103161;1288;96709;-82
2023/09/19 04:13:00;;;;;;;16.70;8.90;;;;;;;18.36;71.21;98453.48;102481;1303;107658;-78
2023/09/19 04:15:27;;;;;;;16.50;8.50;;;;;;;18.30;71.37;98455.20;102555;1291;96747;-79
2023/09/19 04:17:55;;;;;;;18.40;9.10;;;;;;;18.25;71.34;98450.61;104866;1285;96674;-78
2023/09/19 04:20:23;;;;;;;17.50;8.70;;;;;;;18.20;71.34;98450.57;103467;1285;110004;-78
2023/09/19 04:22:51;;;;;;;16.00;8.20;;;;;;;18.17;71.34;98449.19;104468;1285;97150;-79
2023/09/19 04:25:20;;;;;;;18.50;9.20;;;;;;;18.10;71.36;98443.98;103020;1285;106324;-78
2023/09/19 04:27:49;;;;;;;14.50;8.00;;;;;;;18.08;71.54;98447.33;102874;1291;95320;-78
2023/09/19 04:30:21;;;;;;;16.60;8.50;;;;;;;18.06;71.68;98441.08;102559;1291;98045;-80
2023/09/19 04:32:50;;;;;;;19.10;8.40;;;;;;;18.04;71.85;98441.83;102797;1287;110705;-81
2023/09/19 04:35:19;;;;;;;18.00;8.70;;;;;;;18.02;71.65;98439.01;102659;1290;96668;-80
2023/09/19 04:37:47;;;;;;;16.50;8.70;;;;;;;18.00;71.71;98433.08;102416;1289;107746;-80
2023/09/19 04:40:17;;;;;;;15.50;8.20;;;;;;;17.98;71.73;98432.58;102395;1291;97561;-80
2023/09/19 04:42:56;;;;;;;16.50;8.40;;;;;;;17.98;71.62;98435.34;102376;1293;96664;-80
2023/09/19 04:45:24;;;;;;;16.60;8.30;;;;;;;17.96;71.80;98430.33;102406;1291;109991;-81
2023/09/19 04:47:53;;;;;;;19.80;9.50;;;;;;;17.94;71.78;98432.35;102295;1286;96617;-80
2023/09/19 04:50:27;;;;;;;18.10;8.90;;;;;;;17.94;71.90;98430.73;102410;1288;107475;-81
2023/09/19 04:52:55;;;;;;;15.50;7.90;;;;;;;17.94;71.96;98434.60;102430;1287;96705;-80
2023/09/19 04:55:25;;;;;;;16.70;7.90;;;;;;;17.95;72.02;98429.66;102774;1289;96608;-77
2023/09/19 04:57:53;;;;;;;15.70;8.40;;;;;;;17.96;71.82;98426.18;102506;1291;109727;-77
2023/09/19 05:00:27;;;;;;;18.40;8.20;;;;;;;17.97;72.04;98426.08;102568;1291;96800;-82
2023/09/19 05:02:57;;;;;;;16.70;8.30;;;;;;;17.96;72.05;98426.55;102710;1289;107487;-81
2023/09/19 05:05:26;;;;;;;19.60;9.40;;;;;;;17.96;72.13;98429.96;102559;1292;96748;-81
2023/09/19 05:07:55;;;;;;;17.80;8.40;;;;;;;17.95;72.11;98429.73;102784;1289;97990;-80
2023/09/19 05:10:26;;;;;;;15.00;7.60;;;;;;;17.95;72.07;98429.02;102720;1288;110634;-82
2023/09/19 05:12:54;;;;;;;18.30;9.00;;;;;;;17.95;72.09;98428.77;102790;1291;97813;-80
2023/09/19 05:15:22;;;;;;;17.90;8.50;;;;;;;17.93;72.03;98431.11;103195;1291;108192;-82
2023/09/19 05:17:54;;;;;;;16.10;7.50;;;;;;;17.91;72.11;98428.00;105590;1287;94844;-80
2023/09/19 05:20:33;;;;;;;16.10;8.00;;;;;;;17.89;72.17;98422.33;105611;1286;94621;-81
2023/09/19 05:23:07;;;;;;;16.00;8.10;;;;;;;17.90;72.15;98424.95;103947;1289;110036;-81
2023/09/19 05:25:37;;;;;;;16.70;8.20;;;;;;;17.91;72.38;98426.23;105550;1286;96029;-81
2023/09/19 05:28:07;;;;;;;13.80;7.90;;;;;;;17.92;72.34;98421.81;105514;1285;107644;-81
2023/09/19 05:30:36;;;;;;;17.00;7.80;;;;;;;17.95;72.21;98417.34;105720;1286;94662;-81
2023/09/19 05:33:07;;;;;;;16.50;7.90;;;;;;;17.97;72.31;98417.27;105557;1288;94638;-81
2023/09/19 05:35:41;;;;;;;15.20;7.60;;;;;;;17.99;72.27;98412.41;105739;1285;108561;-81
2023/09/19 05:38:11;;;;;;;16.40;7.60;;;;;;;18.02;72.34;98409.95;105736;1286;94365;-81
2023/09/19 05:40:44;;;;;;;15.00;7.70;;;;;;;18.05;72.25;98405.90;105729;1286;107620;-81
2023/09/19 05:43:14;;;;;;;15.60;8.00;;;;;;;18.08;72.46;98405.98;105732;1286;94583;-81
2023/09/19 05:45:42;;;;;;;15.50;7.40;;;;;;;18.11;72.48;98406.92;105771;1286;94581;-81
2023/09/19 05:48:13;;;;;;;13.90;6.50;;;;;;;18.16;72.44;98404.92;105746;1286;110148;-81
2023/09/19 05:50:44;;;;;;;15.20;7.90;;;;;;;18.22;72.53;98406.79;103507;1288;96663;-82
2023/09/19 05:53:14;;;;;;;16.40;8.00;;;;;;;18.27;72.55;98405.48;102936;1288;107830;-81
2023/09/19 05:55:43;;;;;;;13.90;7.40;;;;;;;18.30;72.62;98404.63;102717;1287;96674;-81
2023/09/19 05:58:13;;;;;;;15.60;7.80;;;;;;;18.34;72.57;98409.21;102571;1292;97611;-81
2023/09/19 06:00:44;;;;;;;14.20;7.10;;;;;;;18.38;72.39;98415.03;102498;1292;109797;-81
2023/09/19 06:03:14;;;;;;;14.70;7.50;;;;;;;18.40;72.35;98413.67;102815;1291;97602;-81
2023/09/19 06:05:43;;;;;;;14.50;7.60;;;;;;;18.41;72.55;98414.03;102774;1291;107995;-81
2023/09/19 06:08:10;;;;;;;18.60;7.90;;;;;;;18.42;72.66;98416.33;102750;1291;96606;-81
2023/09/19 06:10:39;;;;;;;17.90;8.00;;;;;;;18.42;72.55;98425.78;102784;1290;96674;-82
2023/09/19 06:13:09;;;;;;;13.90;7.70;;;;;;;18.42;72.60;98425.10;102623;1291;110012;-82
2023/09/19 06:15:40;;;;;;;15.30;7.60;;;;;;;18.42;72.44;98420.80;102639;1291;96729;-82
2023/09/19 06:18:14;;;;;;;14.60;6.80;;;;;;;18.41;72.44;98428.03;102690;1291;107438;-81
2023/09/19 06:20:44;;;;;;;15.60;7.70;;;;;;;18.43;72.51;98432.02;102826;1291;96729;-81
2023/09/19 06:23:13;;;;;;;17.80;8.60;;;;;;;18.44;72.63;98430.45;102753;1289;96799;-81
2023/09/19 06:25:43;;;;;;;16.80;8.10;;;;;;;18.44;72.55;98433.98;102992;1285;109634;-81
2023/09/19 06:28:14;;;;;;;13.50;7.40;;;;;;;18.45;72.63;98434.30;102970;1287;96658;-82
2023/09/19 06:30:42;;;;;;;14.70;7.60;;;;;;;18.44;72.61;98428.13;103011;1291;107802;-81
2023/09/19 06:33:12;;;;;;;14.10;7.50;;;;;;;18.43;72.68;98428.59;102855;1291;97131;-82
2023/09/19 06:35:44;;;;;;;15.90;8.30;;;;;;;18.42;72.41;98430.11;102800;1288;97113;-81
2023/09/19 06:38:13;;;;;;;15.30;7.90;;;;;;;18.40;72.50;98431.64;102786;1286;111201;-81
2023/09/19 06:40:44;;;;;;;16.60;8.70;;;;;;;18.41;72.64;98428.30;102497;1291;96681;-82
2023/09/19 06:43:12;;;;;;;18.50;8.90;;;;;;;18.40;72.54;98430.13;102624;1288;107675;-80
2023/09/19 06:45:40;;;;;;;15.60;8.40;;;;;;;18.40;72.68;98423.36;102754;1288;97893;-82
2023/09/19 06:48:10;;;;;;;18.20;8.70;;;;;;;18.39;72.58;98422.23;102514;1291;96673;-81
2023/09/19 06:50:38;;;;;;;18.00;9.30;;;;;;;18.38;72.66;98423.04;102723;1287;109455;-82
2023/09/19 06:53:07;;;;;;;18.00;9.80;;;;;;;18.38;72.80;98419.64;102724;1287;97928;-82
2023/09/19 06:55:35;;;;;;;14.60;7.80;;;;;;;18.39;72.63;98422.27;102731;1291;107229;-82
2023/09/19 06:58:05;;;;;;;17.10;8.70;;;;;;;18.39;72.75;98424.34;102780;1291;96665;-81
2023/09/19 07:00:35;;;;;;;16.10;9.00;;;;;;;18.40;72.84;98430.58;102740;1288;96659;-81
2023/09/19 07:03:07;;;;;;;18.80;8.90;;;;;;;18.43;72.71;98432.33;102803;1288;112121;-81
2023/09/19 07:05:38;;;;;;;16.40;9.20;;;;;;;18.48;72.81;98434.25;102623;1288;96760;-81
2023/09/19 07:08:12;;;;;;;18.40;9.20;;;;;;;18.52;72.64;98434.91;102650;1288;168461;-81
2023/09/19 07:10:48;;;;;;;18.10;9.00;;;;;;;18.57;72.72;98443.70;102696;1288;96698;-82
2023/09/19 07:13:17;;;;;;;16.50;8.80;;;;;;;18.59;72.72;98434.78;102590;1286;97898;-81
2023/09/19 07:15:49;;;;;;;16.90;9.30;;;;;;;18.62;72.92;98429.94;102882;1290;109959;-82
2023/09/19 07:18:18;;;;;;;;;;;;;;;18.66;72.84;98429.15;102770;1291;97886;-81
2023/09/19 07:20:49;;;;;;;15.20;8.40;;;;;;;18.70;72.75;98430.16;102743;1291;107136;-82
2023/09/19 07:23:22;;;;;;;15.10;8.70;;;;;;;18.73;72.90;98427.21;102410;1289;96782;-81
2023/09/19 07:25:49;;;;;;;17.90;9.10;;;;;;;18.76;72.82;98431.26;102693;1291;97959;-82
2023/09/19 07:28:18;;;;;;;18.30;8.20;;;;;;;18.78;72.83;98432.95;102603;1290;109463;-81
2023/09/19 07:30:49;;;;;;;15.00;7.50;;;;;;;18.78;72.73;98434.81;102665;1291;96593;-81
2023/09/19 07:33:18;;;;;;;14.00;7.00;;;;;;;18.77;72.78;98435.50;102615;1309;107338;-81
2023/09/19 07:35:47;;;;;;;14.50;7.20;;;;;;;18.76;72.82;98433.73;102343;1288;96774;-82
2023/09/19 07:38:18;;;;;;;12.80;6.90;;;;;;;18.76;72.82;98436.10;102708;1287;97604;-81
2023/09/19 07:40:45;;;;;;;13.30;6.70;;;;;;;18.77;72.77;98438.90;102284;1288;109841;-81
2023/09/19 07:43:14;;;;;;;10.70;6.50;;;;;;;18.76;72.99;98439.86;102855;1291;96618;-82
2023/09/19 07:45:42;;;;;;;14.40;7.20;;;;;;;18.77;72.78;98442.46;102767;1291;107770;-82
2023/09/19 07:48:15;;;;;;;11.60;6.70;;;;;;;18.78;72.74;98442.02;102792;1296;96786;-81
2023/09/19 07:50:46;;;;;;;10.20;6.30;;;;;;;18.78;72.74;98441.98;102693;1288;96730;-83
2023/09/19 07:53:13;;;;;;;16.00;7.50;;;;;;;18.79;72.86;98441.71;102336;1287;108652;-82
2023/09/19 07:55:42;;;;;;;14.20;6.40;;;;;;;18.79;72.80;98443.05;102652;1288;96644;-81
2023/09/19 07:58:13;;;;;;;13.80;6.90;;;;;;;18.81;72.83;98442.34;102859;1302;107741;-82
2023/09/19 08:00:41;;;;;;;16.70;8.30;;;;;;;18.81;72.86;98441.96;102794;1288;97583;-82
2023/09/19 08:03:14;;;;;;;12.80;7.20;;;;;;;18.80;72.60;98441.00;102547;1287;96709;-82
2023/09/19 08:05:45;;;;;;;15.60;7.50;;;;;;;18.80;72.67;98439.91;102550;1291;110673;-82
2023/09/19 08:08:14;;;;;;;15.80;7.40;;;;;;;18.79;72.83;98441.14;102876;1288;97049;-82
2023/09/19 08:10:56;;;;;;;14.30;7.20;;;;;;;18.77;72.62;98438.16;102975;1292;107737;-82
2023/09/19 08:13:25;;;;;;;16.30;7.30;;;;;;;18.75;72.76;98434.56;103225;1285;98031;-81
2023/09/19 08:15:53;;;;;;;14.90;7.50;;;;;;;18.73;72.79;98434.42;103358;1288;96655;-81
2023/09/19 08:18:22;;;;;;;15.70;7.70;;;;;;;18.72;72.87;98432.58;103169;1286;110064;-81
2023/09/19 08:20:52;;;;;;;17.20;7.40;;;;;;;18.70;72.96;98432.41;103269;1288;97202;-82
2023/09/19 08:23:21;;;;;;;16.30;7.90;;;;;;;18.70;72.59;98430.00;105752;1287;105711;-82
2023/09/19 08:25:49;;;;;;;18.70;8.60;;;;;;;18.69;72.74;98427.99;105750;1286;94395;-82
2023/09/19 08:28:24;;;;;;;17.50;8.70;;;;;;;18.69;72.76;98425.80;105249;1288;96674;-81
2023/09/19 08:30:54;;;;;;;15.70;7.90;;;;;;;18.69;72.83;98423.11;103022;1290;109686;-81
2023/09/19 08:33:24;;;;;;;17.50;8.50;;;;;;;18.68;72.81;98423.67;102698;1290;97506;-82
2023/09/19 08:35:52;;;;;;;22.30;8.80;;;;;;;18.67;72.85;98424.94;102752;1291;108610;-82
2023/09/19 08:38:20;;;;;;;18.30;8.80;;;;;;;18.66;72.77;98425.04;102587;1287;96681;-82
2023/09/19 08:40:48;;;;;;;17.80;8.50;;;;;;;18.64;72.82;98424.76;102824;1288;96649;-82
2023/09/19 08:43:16;;;;;;;16.10;8.40;;;;;;;18.62;72.68;98424.27;102722;1288;109622;-82
2023/09/19 08:45:44;;;;;;;23.70;9.60;;;;;;;18.61;72.82;98426.36;102592;1291;96689;-82
2023/09/19 08:48:17;;;;;;;29.30;12.60;;;;;;;18.59;72.86;98429.39;102912;1289;108455;-80
2023/09/19 08:50:54;;;;;;;23.00;12.30;;;;;;;18.57;72.73;98431.27;102667;1301;96690;-82
2023/09/19 08:53:41;;;;;;;25.90;13.80;;;;;;;18.57;72.69;98428.44;102507;1291;98028;-82
2023/09/19 08:56:11;;;;;;;26.80;14.60;;;;;;;18.57;72.71;98430.77;102851;1291;109880;-81
2023/09/19 08:58:48;;;;;;;69.10;46.80;;;;;;;18.58;72.72;98434.75;102751;1288;99375;-82
2023/09/19 09:01:16;;;;;;;73.70;41.00;;;;;;;18.59;72.93;98432.30;102808;1286;107378;-83
2023/09/19 09:03:47;;;;;;;47.80;28.80;;;;;;;18.58;72.89;98433.08;102640;1288;98021;-83
2023/09/19 09:06:18;;;;;;;32.90;16.70;;;;;;;18.60;72.96;98434.38;102695;1292;98026;-82
2023/09/19 09:08:47;;;;;;;28.80;14.10;;;;;;;18.60;72.80;98436.80;102708;1289;111389;-82
2023/09/19 09:11:17;;;;;;;20.10;10.90;;;;;;;18.60;72.86;98436.13;102464;1292;98006;-81
2023/09/19 09:13:45;;;;;;;27.80;12.50;;;;;;;18.60;72.85;98439.53;102706;1291;107257;-82
2023/09/19 09:16:18;;;;;;;20.60;10.00;;;;;;;18.61;72.83;98436.23;102551;1291;99397;-81
2023/09/19 09:18:54;;;;;;;20.50;9.30;;;;;;;18.61;72.94;98435.10;102647;1298;98005;-82
2023/09/19 09:21:25;;;;;;;24.50;8.90;;;;;;;18.63;72.87;98434.05;102577;1293;111150;-82
2023/09/19 09:23:53;;;;;;;20.90;9.10;;;;;;;18.65;72.90;98438.45;102701;1291;97973;-82
2023/09/19 09:26:40;;;;;;;15.90;8.50;;;;;;;18.69;73.25;98442.46;102823;1286;107820;-81
2023/09/19 09:29:08;;;;;;;20.00;8.60;;;;;;;18.70;72.93;98442.19;102720;1286;98590;-81
2023/09/19 09:31:37;;;;;;;19.20;8.90;;;;;;;18.70;72.86;98445.05;102861;1286;98014;-81
2023/09/19 09:34:09;;;;;;;18.90;8.40;;;;;;;18.70;73.01;98446.64;102870;1287;111182;-81
2023/09/19 09:36:45;;;;;;;17.70;7.50;;;;;;;18.70;73.02;98445.96;102750;1302;98015;-81
2023/09/19 09:39:18;;;;;;;17.90;8.00;;;;;;;18.68;73.01;98445.06;102580;1286;107771;-82
2023/09/19 09:41:46;;;;;;;;;;;;;;;18.66;73.01;98449.65;103055;1290;98019;-82
2023/09/19 09:44:17;;;;;;;15.60;7.20;;;;;;;18.63;72.91;98452.17;102701;1288;97999;-81
2023/09/19 09:49:32;;;;;;;25.50;9.10;;;;;;;18.59;73.01;98458.91;102681;1294;98141;-82
2023/09/19 09:52:07;;;;;;;10.10;5.90;;;;;;;18.55;72.98;98460.29;103262;1287;107346;-82
2023/09/19 09:54:59;;;;;;;15.20;6.30;;;;;;;18.50;73.16;98453.46;102861;1288;97976;-81
2023/09/19 09:57:30;;;;;;;16.70;7.60;;;;;;;18.46;73.25;98459.14;102929;1286;98923;-81
2023/09/19 10:00:15;;;;;;;16.90;7.90;;;;;;;18.40;73.17;98458.56;102797;1292;110915;-82
2023/09/19 10:02:46;;;;;;;18.30;8.00;;;;;;;18.36;73.15;98464.08;102965;1290;97970;-81
2023/09/19 10:07:53;;;;;;;14.70;6.90;;;;;;;18.22;73.13;98465.96;102834;1291;98144;-82
2023/09/19 10:13:30;;;;;;;13.20;6.50;;;;;;;18.11;73.33;98468.14;102743;1286;112094;-81
2023/09/19 10:16:04;;;;;;;17.20;6.80;;;;;;;18.05;73.44;98470.77;102724;1291;99425;-82
2023/09/19 10:18:36;;;;;;;13.90;6.80;;;;;;;17.99;73.53;98468.92;102846;1289;108061;-82
2023/09/19 10:21:06;;;;;;;13.70;6.40;;;;;;;17.92;73.52;98468.55;102886;1288;98170;-81
2023/09/19 10:23:37;;;;;;;12.00;6.30;;;;;;;17.87;73.63;98470.02;102786;1294;98182;-82
2023/09/19 10:26:06;;;;;;;13.90;6.20;;;;;;;17.85;73.80;98473.63;102908;1288;111275;-81
2023/09/19 10:28:36;;;;;;;12.50;6.10;;;;;;;17.82;73.53;98474.70;102731;1291;99361;-81
2023/09/19 10:31:09;;;;;;;14.80;6.10;;;;;;;17.79;73.62;98474.48;103058;1291;107566;-81
2023/09/19 10:33:38;;;;;;;13.30;6.10;;;;;;;17.77;73.66;98468.79;102942;1288;98044;-82
2023/09/19 10:36:07;;;;;;;12.60;6.40;;;;;;;17.78;73.66;98473.23;102993;1287;99510;-81
2023/09/19 10:38:40;;;;;;;10.70;5.40;;;;;;;17.79;73.88;98466.30;102662;1293;110133;-82
2023/09/19 10:41:10;;;;;;;;;;;;;;;17.80;74.03;98469.89;102892;1291;98043;-81
2023/09/19 10:43:44;;;;;;;16.10;5.80;;;;;;;17.76;73.96;98466.95;102853;1291;107582;-82
2023/09/19 10:46:13;;;;;;;8.80;4.70;;;;;;;17.79;74.29;98466.48;102789;1291;97803;-81
2023/09/19 10:48:43;;;;;;;10.40;5.10;;;;;;;17.81;74.04;98467.14;102657;1291;98024;-82
2023/09/19 10:51:38;;;;;;;13.10;5.30;;;;;;;17.82;74.32;98468.14;102764;1291;110893;-82
2023/09/19 10:54:15;;;;;;;11.30;5.30;;;;;;;17.83;74.12;98467.20;102824;1291;99251;-82
2023/09/19 10:56:49;;;;;;;8.70;4.50;;;;;;;17.85;74.25;98463.14;102702;1291;107378;-81
2023/09/19 10:59:21;;;;;;;8.50;4.90;;;;;;;17.86;74.17;98468.17;102827;1291;99353;-83
2023/09/19 11:01:58;;;;;;;7.70;4.60;;;;;;;17.87;74.46;98464.46;102815;1289;98031;-81
2023/09/19 11:04:36;;;;;;;8.70;4.80;;;;;;;17.87;74.21;98464.30;102859;1291;110982;-82
2023/09/19 11:07:12;;;;;;;6.60;4.00;;;;;;;17.91;74.41;98468.77;102793;1292;99497;-82
2023/09/19 11:09:58;;;;;;;9.90;4.60;;;;;;;17.93;74.57;98466.11;102499;1294;107881;-82
2023/09/19 11:12:45;;;;;;;6.30;3.70;;;;;;;17.96;74.47;98463.50;102659;1291;98096;-82
2023/09/19 11:15:51;;;;;;;5.60;3.90;;;;;;;18.00;74.58;98461.29;102891;1291;98038;-81
2023/09/19 11:18:40;;;;;;;8.50;4.10;;;;;;;18.00;74.67;98460.73;102924;1288;112084;-82
2023/09/19 11:21:30;;;;;;;10.30;4.60;;;;;;;17.98;74.52;98457.46;102787;1289;98008;-81
2023/09/19 11:24:10;;;;;;;8.00;4.20;;;;;;;17.99;74.65;98457.58;102653;1292;107706;-82
2023/09/19 11:26:48;;;;;;;7.90;4.00;;;;;;;18.01;74.70;98457.02;102712;1291;98059;-82
2023/09/19 11:29:26;;;;;;;10.50;4.30;;;;;;;18.04;74.74;98458.15;102624;1291;98028;-82
2023/09/19 11:31:55;;;;;;;5.80;4.10;;;;;;;18.05;74.98;98452.86;103104;1287;110079;-82
2023/09/19 11:34:36;;;;;;;6.80;3.80;;;;;;;18.08;74.84;98450.16;102857;1292;98027;-82
2023/09/19 11:37:11;;;;;;;5.90;3.80;;;;;;;18.10;75.04;98447.73;103074;1287;107852;-82
2023/09/19 11:40:09;;;;;;;5.80;3.80;;;;;;;18.13;75.02;98447.10;102640;1288;98027;-82
2023/09/19 11:42:49;;;;;;;5.10;3.70;;;;;;;18.14;75.23;98451.23;102642;1288;98033;-82
2023/09/19 11:46:01;;;;;;;5.40;3.60;;;;;;;18.14;75.13;98446.96;103293;1287;109550;-81
2023/09/19 11:48:29;;;;;;;6.20;3.80;;;;;;;18.13;74.93;98452.22;103123;1289;97901;-81
2023/09/19 11:50:59;;;;;;;6.30;3.50;;;;;;;18.12;75.17;98451.52;105700;1288;108027;-81
2023/09/19 11:53:33;;;;;;;5.90;3.30;;;;;;;18.12;75.19;98453.64;105701;1286;96176;-81
2023/09/19 11:56:10;;;;;;;5.70;3.20;;;;;;;18.12;75.13;98453.81;105762;1288;96080;-82
2023/09/19 11:58:42;;;;;;;4.80;3.20;;;;;;;18.12;75.07;98453.63;103233;1287;112451;-81
2023/09/19 12:01:14;;;;;;;5.80;3.50;;;;;;;18.11;75.11;98453.58;103540;1287;98114;-82
2023/09/19 12:03:47;;;;;;;9.70;3.80;;;;;;;18.13;75.44;98451.74;102686;1295;107375;-81
2023/09/19 12:06:16;;;;;;;5.80;3.30;;;;;;;18.13;75.35;98457.27;102880;1289;98055;-82
2023/09/19 12:08:46;;;;;;;4.50;3.20;;;;;;;18.14;75.20;98457.02;102728;1291;98039;-82
2023/09/19 12:11:18;;;;;;;7.60;3.80;;;;;;;18.14;75.38;98459.47;102722;1288;110885;-83
2023/09/19 12:13:48;;;;;;;4.40;3.00;;;;;;;18.16;75.57;98460.58;103019;1288;98265;-81
2023/09/19 12:16:23;;;;;;;;;;;;;;;18.16;75.60;98464.14;102872;1291;107209;-82
2023/09/19 12:18:51;;;;;;;6.60;3.40;;;;;;;18.15;75.66;98465.73;102843;1288;98028;-82
2023/09/19 12:21:23;;;;;;;5.70;3.50;;;;;;;18.14;75.70;98473.46;102720;1291;98009;-82
2023/09/19 12:24:05;;;;;;;3.70;2.80;;;;;;;18.12;75.71;98477.83;102771;1288;111841;-81
2023/09/19 12:26:45;;;;;;;6.90;4.00;;;;;;;18.11;75.91;98480.98;102800;1289;98034;-83
2023/09/19 12:29:21;;;;;;;8.80;4.70;;;;;;;18.11;75.98;98479.11;102879;1291;107612;-82
2023/09/19 12:32:04;;;;;;;8.20;4.30;;;;;;;18.10;75.90;98479.70;102820;1288;98149;-83
2023/09/19 12:34:37;;;;;;;7.80;4.90;;;;;;;18.11;76.07;98483.38;103085;1289;98092;-81
2023/09/19 12:37:20;;;;;;;9.80;4.90;;;;;;;18.10;76.12;98485.58;102874;1292;113338;-81
2023/09/19 12:39:51;;;;;;;13.60;5.40;;;;;;;18.08;76.47;98486.45;102928;1290;98243;-81
2023/09/19 12:42:22;;;;;;;10.70;5.70;;;;;;;18.05;76.22;98487.34;102864;1293;106741;-81
2023/09/19 12:45:00;;;;;;;11.40;6.20;;;;;;;18.04;76.57;98489.06;103988;1291;98130;-82
2023/09/19 12:47:30;;;;;;;13.90;6.20;;;;;;;18.03;76.47;98496.86;102963;1291;98146;-81
2023/09/19 12:50:18;;;;;;;14.20;7.10;;;;;;;18.01;77.07;98496.67;102885;1288;111060;-83
2023/09/19 12:52:48;;;;;;;12.70;6.70;;;;;;;17.97;76.61;98499.41;102724;1287;98024;-82
2023/09/19 12:55:21;;;;;;;12.20;6.60;;;;;;;17.95;76.74;98495.04;102778;1290;107505;-83
2023/09/19 12:57:59;;;;;;;15.60;7.40;;;;;;;17.93;77.09;98496.33;102961;1289;98028;-82
2023/09/19 13:00:34;;;;;;;13.10;6.50;;;;;;;17.91;77.30;98502.10;102902;1291;99258;-82
2023/09/19 13:03:32;;;;;;;13.50;6.60;;;;;;;17.87;77.26;98499.31;103138;1291;111053;-81
2023/09/19 13:06:04;;;;;;;14.90;6.90;;;;;;;17.84;77.39;98505.55;102870;1288;98076;-82
2023/09/19 13:08:37;;;;;;;13.40;6.50;;;;;;;17.83;77.41;98510.61;102655;1290;107839;-82
2023/09/19 13:11:09;;;;;;;16.20;6.90;;;;;;;17.82;77.34;98519.73;102848;1291;98818;-82
2023/09/19 13:14:24;;;;;;;14.80;6.40;;;;;;;17.80;77.50;98517.68;102895;1291;98049;-82
2023/09/19 13:17:19;;;;;;;11.90;6.20;;;;;;;17.76;77.28;98526.83;102475;1293;111402;-81
2023/09/19 13:19:56;;;;;;;11.70;5.80;;;;;;;17.75;77.48;98527.30;102930;1288;98220;-82
2023/09/19 13:22:54;;;;;;;13.20;6.50;;;;;;;17.75;77.44;98532.75;102955;1288;107770;-82
2023/09/19 13:25:22;;;;;;;7.90;4.90;;;;;;;17.74;77.52;98535.14;103398;1291;98370;-82
2023/09/19 13:27:55;;;;;;;12.80;6.10;;;;;;;17.73;78.06;98536.77;102678;1291;99369;-80
2023/09/19 13:30:25;;;;;;;;;;;;;;;17.70;77.86;98539.06;102604;1292;111388;-81
2023/09/19 13:33:06;;;;;;;10.60;5.30;;;;;;;17.68;78.18;98543.90;103337;1289;98014;-81
2023/09/19 13:35:40;;;;;;;11.80;5.80;;;;;;;17.67;77.73;98549.52;102676;1294;107304;-82
2023/09/19 13:38:11;;;;;;;14.40;6.10;;;;;;;17.66;78.19;98549.82;102986;1291;98015;-82
2023/09/19 13:40:41;;;;;;;14.50;5.70;;;;;;;17.66;77.98;98550.42;103478;1291;97979;-81
2023/09/19 13:43:11;;;;;;;11.70;5.50;;;;;;;17.66;78.13;98548.23;102522;1295;109813;-81
2023/09/19 13:45:42;;;;;;;14.00;6.00;;;;;;;17.65;77.93;98553.31;102841;1291;98180;-81
2023/09/19 13:48:13;;;;;;;12.80;5.70;;;;;;;17.66;78.08;98550.19;102563;1286;107287;-81
2023/09/19 13:50:42;;;;;;;14.20;6.20;;;;;;;17.66;78.70;98555.27;102642;1291;98023;-81
2023/09/19 13:53:11;;;;;;;13.30;5.90;;;;;;;17.65;78.57;98556.11;102865;1288;98038;-81
2023/09/19 13:55:41;;;;;;;16.30;6.90;;;;;;;17.64;78.04;98557.95;102797;1291;110768;-82
2023/09/19 13:58:10;;;;;;;15.40;6.90;;;;;;;17.65;78.29;98562.33;102790;1289;98159;-82
2023/09/19 14:00:39;;;;;;;15.20;6.70;;;;;;;17.65;78.64;98561.45;102768;1292;107772;-81
2023/09/19 14:03:07;;;;;;;17.20;7.00;;;;;;;17.65;78.64;98568.45;102760;1291;98079;-82
2023/09/19 14:05:37;;;;;;;16.50;8.30;;;;;;;17.64;78.55;98568.73;102712;1291;97924;-82
2023/09/19 14:08:05;;;;;;;17.90;7.80;;;;;;;17.64;78.55;98567.46;102723;1290;110808;-82
2023/09/19 14:10:36;;;;;;;16.70;7.40;;;;;;;17.65;78.71;98572.17;102894;1288;98571;-82
2023/09/19 14:13:06;;;;;;;16.70;8.10;;;;;;;17.65;78.54;98574.36;102615;1291;107242;-82
2023/09/19 14:15:38;;;;;;;14.00;6.90;;;;;;;17.66;78.87;98577.86;102848;1290;99347;-82
2023/09/19 14:18:06;;;;;;;15.20;7.50;;;;;;;17.65;78.65;98582.94;102680;1291;98087;-82
2023/09/19 14:20:39;;;;;;;19.10;7.60;;;;;;;17.65;78.85;98581.66;102689;1291;112187;-83
2023/09/19 14:23:08;;;;;;;15.70;7.30;;;;;;;17.67;79.10;98587.98;102479;1294;98107;-83
2023/09/19 14:25:36;;;;;;;16.10;7.60;;;;;;;17.67;78.93;98586.83;103029;1288;107407;-83
2023/09/19 14:28:07;;;;;;;18.00;8.30;;;;;;;17.66;79.37;98585.70;102557;1292;98724;-83
2023/09/19 14:30:37;;;;;;;18.80;8.40;;;;;;;17.66;79.29;98588.34;102504;1291;98027;-83
2023/09/19 14:33:06;;;;;;;18.30;8.60;;;;;;;17.66;79.22;98592.48;102501;1291;112019;-82
2023/09/19 14:35:37;;;;;;;18.90;7.90;;;;;;;17.67;79.30;98589.89;102699;1289;98021;-83
2023/09/19 14:38:05;;;;;;;18.30;8.20;;;;;;;17.67;79.25;98592.71;102632;1291;107355;-83
2023/09/19 14:40:33;;;;;;;17.20;7.90;;;;;;;17.68;79.12;98588.34;102849;1294;98255;-83
2023/09/19 14:43:01;;;;;;;19.30;9.00;;;;;;;17.70;79.49;98592.11;102735;1291;98001;-83
2023/09/19 14:45:32;;;;;;;17.30;8.20;;;;;;;17.71;79.35;98593.96;102600;1296;111482;-84
2023/09/19 14:48:47;;;;;;;18.50;9.10;;;;;;;17.71;79.60;98593.02;102743;1289;98037;-82
2023/09/19 14:51:15;;;;;;;20.10;11.30;;;;;;;17.73;79.16;98596.43;103210;1291;107889;-82
2023/09/19 14:53:43;;;;;;;20.10;9.70;;;;;;;17.74;79.37;98595.95;102613;1291;98007;-81
2023/09/19 14:56:12;;;;;;;19.50;9.30;;;;;;;17.75;79.42;98598.52;102547;1291;98470;-82
2023/09/19 14:58:41;;;;;;;19.30;9.00;;;;;;;17.75;79.68;98599.29;102934;1286;110946;-82
2023/09/19 15:01:12;;;;;;;16.20;8.40;;;;;;;17.75;79.50;98601.91;103819;1288;98055;-81
2023/09/19 15:03:42;;;;;;;15.30;7.70;;;;;;;17.76;79.43;98605.81;102665;1291;107682;-82
2023/09/19 15:06:15;;;;;;;15.30;7.80;;;;;;;17.76;79.25;98608.64;102953;1291;98086;-83
2023/09/19 15:08:47;;;;;;;15.10;7.60;;;;;;;17.77;79.56;98612.50;105539;1288;95745;-81
2023/09/19 15:11:20;;;;;;;16.40;8.20;;;;;;;17.77;79.41;98613.95;105434;1288;110974;-81
2023/09/19 15:13:52;;;;;;;21.20;8.40;;;;;;;17.79;79.56;98618.60;104951;1292;98021;-80
2023/09/19 15:16:20;;;;;;;15.40;7.50;;;;;;;17.79;79.58;98622.83;105559;1286;107476;-81
2023/09/19 15:18:48;;;;;;;14.80;6.70;;;;;;;17.80;79.58;98625.17;105730;1287;95987;-81
2023/09/19 15:21:16;;;;;;;15.60;7.90;;;;;;;17.82;79.47;98630.96;104965;1291;97993;-80
2023/09/19 15:23:45;;;;;;;17.10;7.80;;;;;;;17.83;80.04;98632.08;102955;1292;110817;-82
2023/09/19 15:26:20;;;;;;;16.80;8.40;;;;;;;17.83;79.74;98630.80;102936;1291;98016;-82
2023/09/19 15:28:49;;;;;;;19.10;9.80;;;;;;;17.84;80.07;98634.83;103008;1295;107693;-81
2023/09/19 15:31:17;;;;;;;16.60;8.60;;;;;;;17.83;80.26;98637.12;103009;1291;97957;-82
2023/09/19 15:33:46;;;;;;;15.50;7.80;;;;;;;17.81;80.01;98638.36;102723;1292;97931;-81
2023/09/19 15:36:15;;;;;;;17.40;8.60;;;;;;;17.81;79.94;98648.25;103191;1288;110491;-82
2023/09/19 15:39:06;;;;;;;18.20;8.00;;;;;;;17.80;79.81;98646.39;102710;1302;98099;-81
2023/09/19 15:41:39;;;;;;;16.50;8.10;;;;;;;17.80;79.97;98649.08;102901;1286;107806;-82
2023/09/19 15:44:23;;;;;;;15.90;7.40;;;;;;;17.80;79.94;98653.95;102749;1294;98089;-82
2023/09/19 15:46:52;;;;;;;13.00;6.60;;;;;;;17.80;80.27;98655.23;102865;1289;98013;-82
2023/09/19 15:49:20;;;;;;;12.40;6.60;;;;;;;17.79;80.04;98656.17;102758;1291;110944;-83